createdAt,value
2018-06-28T00:00:23.973Z,36.80
2018-06-28T00:01:23.959Z,36.40
2018-06-28T00:02:23.951Z,37.10
2018-06-28T00:03:23.942Z,37.70
2018-06-28T00:04:23.934Z,36.40
2018-06-28T00:05:23.925Z,37.70
2018-06-28T00:06:23.916Z,37.00
2018-06-28T00:07:23.909Z,35.20
2018-06-28T00:08:23.899Z,35.80
2018-06-28T00:09:23.890Z,36.70
2018-06-28T00:10:23.881Z,36.90
2018-06-28T00:11:23.872Z,36.10
2018-06-28T00:12:23.864Z,35.40
2018-06-28T00:13:23.856Z,35.20
2018-06-28T00:14:23.846Z,35.60
2018-06-28T00:15:23.838Z,34.50
2018-06-28T00:16:23.830Z,36.90
2018-06-28T00:17:23.821Z,37.30
2018-06-28T00:18:23.811Z,37.60
2018-06-28T00:19:23.802Z,36.40
2018-06-28T00:20:23.800Z,37.40
2018-06-28T00:21:23.787Z,38.60
2018-06-28T00:22:23.776Z,37.40
2018-06-28T00:23:23.769Z,38.10
2018-06-28T00:24:23.760Z,38.10
2018-06-28T00:25:23.752Z,38.40
2018-06-28T00:26:23.743Z,37.20
2018-06-28T00:27:23.734Z,38.40
2018-06-28T00:28:23.725Z,36.80
2018-06-28T00:29:23.717Z,38.50
2018-06-28T00:30:23.706Z,37.70
2018-06-28T00:31:23.699Z,38.40
2018-06-28T00:32:23.691Z,38.20
2018-06-28T00:33:23.682Z,37.90
2018-06-28T00:34:23.672Z,39.60
2018-06-28T00:35:23.666Z,38.70
2018-06-28T00:36:23.656Z,38.00
2018-06-28T00:37:23.648Z,38.20
2018-06-28T00:38:23.637Z,38.20
2018-06-28T00:39:23.630Z,39.70
2018-06-28T00:40:23.621Z,38.60
2018-06-28T00:41:23.613Z,38.30
2018-06-28T00:42:23.604Z,39.60
2018-06-28T00:43:23.598Z,39.40
2018-06-28T00:44:23.587Z,39.70
2018-06-28T00:45:23.579Z,40.20
2018-06-28T00:46:23.569Z,39.70
2018-06-28T00:47:23.560Z,43.40
2018-06-28T00:48:23.752Z,40.00
2018-06-28T00:49:23.543Z,40.00
2018-06-28T00:50:23.533Z,42.40
2018-06-28T00:51:23.527Z,44.00
2018-06-28T00:52:23.517Z,41.70
2018-06-28T00:53:23.507Z,40.30
2018-06-28T00:54:23.499Z,39.90
2018-06-28T00:55:23.491Z,40.90
2018-06-28T00:56:23.482Z,38.00
2018-06-28T00:57:23.475Z,39.70
2018-06-28T00:58:23.464Z,38.90
2018-06-28T00:59:23.455Z,38.20
2018-06-28T01:00:23.447Z,37.20
2018-06-28T01:01:23.438Z,38.90
2018-06-28T01:02:23.428Z,39.00
2018-06-28T01:03:23.420Z,37.80
2018-06-28T01:04:23.411Z,37.00
2018-06-28T01:05:23.404Z,38.50
2018-06-28T01:06:23.393Z,39.50
2018-06-28T01:07:23.386Z,39.20
2018-06-28T01:08:23.375Z,39.60
2018-06-28T01:09:23.368Z,40.30
2018-06-28T01:10:23.357Z,42.10
2018-06-28T01:11:23.347Z,40.60
2018-06-28T01:12:23.340Z,40.20
2018-06-28T01:13:23.331Z,39.50
2018-06-28T01:14:23.322Z,41.30
2018-06-28T01:15:23.313Z,39.10
2018-06-28T01:16:23.309Z,40.40
2018-06-28T01:17:23.296Z,38.70
2018-06-28T01:18:23.287Z,41.40
2018-06-28T01:19:23.277Z,38.80
2018-06-28T01:20:23.271Z,40.10
2018-06-28T01:21:23.260Z,39.90
2018-06-28T01:22:23.253Z,42.50
2018-06-28T01:23:23.243Z,40.90
2018-06-28T01:24:23.236Z,43.20
2018-06-28T01:25:23.226Z,41.50
2018-06-28T01:26:23.217Z,41.50
2018-06-28T01:27:23.208Z,41.40
2018-06-28T01:28:23.200Z,42.50
2018-06-28T01:29:23.191Z,41.60
2018-06-28T01:30:23.183Z,41.30
2018-06-28T01:31:23.174Z,43.40
2018-06-28T01:32:23.165Z,42.50
2018-06-28T01:33:23.155Z,41.40
2018-06-28T01:34:23.150Z,41.30
2018-06-28T01:35:23.138Z,42.80
2018-06-28T01:36:23.129Z,42.00
2018-06-28T01:37:23.121Z,42.80
2018-06-28T01:38:23.110Z,41.40
2018-06-28T01:39:23.103Z,42.80
2018-06-28T01:40:23.099Z,43.40
2018-06-28T01:41:23.085Z,44.10
2018-06-28T01:42:23.075Z,44.40
2018-06-28T01:43:23.069Z,42.00
2018-06-28T01:44:23.061Z,43.20
2018-06-28T01:45:23.049Z,42.70
2018-06-28T01:46:23.043Z,43.30
2018-06-28T01:47:23.032Z,42.50
2018-06-28T01:48:23.027Z,42.10
2018-06-28T01:49:23.016Z,42.50
2018-06-28T01:50:23.007Z,42.10
2018-06-28T01:51:22.997Z,41.50
2018-06-28T01:52:22.988Z,41.30
2018-06-28T01:53:22.980Z,40.80
2018-06-28T01:54:22.974Z,41.40
2018-06-28T01:55:22.961Z,41.40
2018-06-28T01:56:22.953Z,40.90
2018-06-28T01:57:22.945Z,41.60
2018-06-28T01:58:22.936Z,41.10
2018-06-28T01:59:22.925Z,40.20
2018-06-28T02:00:22.919Z,38.90
2018-06-28T02:01:22.909Z,39.30
2018-06-28T02:02:22.899Z,38.50
2018-06-28T02:03:22.890Z,37.70
2018-06-28T02:04:22.881Z,36.90
2018-06-28T02:05:22.873Z,37.60
2018-06-28T02:06:22.862Z,36.80
2018-06-28T02:07:22.855Z,37.20
2018-06-28T02:08:22.847Z,36.00
2018-06-28T02:09:22.883Z,38.10
2018-06-28T02:10:22.828Z,37.80
2018-06-28T02:11:22.819Z,37.10
2018-06-28T02:12:22.810Z,37.70
2018-06-28T02:13:22.801Z,37.50
2018-06-28T02:14:22.792Z,38.80
2018-06-28T02:15:22.783Z,39.00
2018-06-28T02:16:22.776Z,40.50
2018-06-28T02:17:22.766Z,41.60
2018-06-28T02:18:22.756Z,41.40
2018-06-28T02:19:22.746Z,41.80
2018-06-28T02:20:22.738Z,41.40
2018-06-28T02:21:22.730Z,42.50
2018-06-28T02:22:22.720Z,41.90
2018-06-28T02:23:22.710Z,41.70
2018-06-28T02:24:22.702Z,39.70
2018-06-28T02:25:22.693Z,42.70
2018-06-28T02:26:22.685Z,41.90
2018-06-28T02:27:22.673Z,42.90
2018-06-28T02:28:22.668Z,43.20
2018-06-28T02:29:22.659Z,44.00
2018-06-28T02:30:22.648Z,42.40
2018-06-28T02:31:22.639Z,41.90
2018-06-28T02:32:22.629Z,42.20
2018-06-28T02:33:22.621Z,41.70
2018-06-28T02:34:22.611Z,40.70
2018-06-28T02:35:22.604Z,41.10
2018-06-28T02:36:22.593Z,41.30
2018-06-28T02:37:22.585Z,40.00
2018-06-28T02:38:22.574Z,40.50
2018-06-28T02:39:22.566Z,40.20
2018-06-28T02:40:22.559Z,39.20
2018-06-28T02:41:22.549Z,38.90
2018-06-28T02:42:22.539Z,38.40
2018-06-28T02:43:22.532Z,40.00
2018-06-28T02:44:22.520Z,38.10
2018-06-28T02:45:22.512Z,40.10
2018-06-28T02:46:22.502Z,37.80
2018-06-28T02:47:22.493Z,38.00
2018-06-28T02:48:22.483Z,40.00
2018-06-28T02:49:22.475Z,41.80
2018-06-28T02:50:22.464Z,42.50
2018-06-28T02:51:22.455Z,44.20
2018-06-28T02:52:22.450Z,42.90
2018-06-28T02:53:22.442Z,44.00
2018-06-28T02:54:22.433Z,43.40
2018-06-28T02:55:22.425Z,44.70
2018-06-28T02:56:22.410Z,45.50
2018-06-28T02:57:22.401Z,44.60
2018-06-28T02:58:22.394Z,43.70
2018-06-28T02:59:22.385Z,43.60
2018-06-28T03:00:22.372Z,42.80
2018-06-28T03:01:22.362Z,42.40
2018-06-28T03:02:22.355Z,43.60
2018-06-28T03:03:22.346Z,44.20
2018-06-28T03:04:22.335Z,41.10
2018-06-28T03:05:22.324Z,43.30
2018-06-28T03:06:22.316Z,40.80
2018-06-28T03:07:22.305Z,41.90
2018-06-28T03:08:22.297Z,43.20
2018-06-28T03:09:22.288Z,43.00
2018-06-28T03:10:22.276Z,42.50
2018-06-28T03:11:22.268Z,44.30
2018-06-28T03:12:22.260Z,43.20
2018-06-28T03:13:22.249Z,41.90
2018-06-28T03:14:22.249Z,43.20
2018-06-28T03:15:22.242Z,41.70
2018-06-28T03:16:22.232Z,42.80
2018-06-28T03:17:22.225Z,41.80
2018-06-28T03:18:22.213Z,41.20
2018-06-28T03:19:22.204Z,41.30
2018-06-28T03:20:22.194Z,42.70
2018-06-28T03:21:22.183Z,43.10
2018-06-28T03:22:22.173Z,41.80
2018-06-28T03:23:22.165Z,42.10
2018-06-28T03:24:22.158Z,41.80
2018-06-28T03:25:22.147Z,40.80
2018-06-28T03:26:22.139Z,41.80
2018-06-28T03:27:22.127Z,41.40
2018-06-28T03:28:22.118Z,42.00
2018-06-28T03:29:22.109Z,42.50
2018-06-28T03:30:22.100Z,41.90
2018-06-28T03:31:22.092Z,42.60
2018-06-28T03:32:22.084Z,42.00
2018-06-28T03:33:22.073Z,43.80
2018-06-28T03:34:22.062Z,42.80
2018-06-28T03:35:22.053Z,42.80
2018-06-28T03:36:22.046Z,42.90
2018-06-28T03:37:22.036Z,43.00
2018-06-28T03:38:22.026Z,44.00
2018-06-28T03:39:22.015Z,41.80
2018-06-28T03:40:22.007Z,43.80
2018-06-28T03:41:21.997Z,44.50
2018-06-28T03:42:21.985Z,43.40
2018-06-28T03:43:21.977Z,43.10
2018-06-28T03:44:21.970Z,42.60
2018-06-28T03:45:21.959Z,42.90
2018-06-28T03:46:21.949Z,43.50
2018-06-28T03:47:21.940Z,44.30
2018-06-28T03:48:21.930Z,43.30
2018-06-28T03:49:21.921Z,43.50
2018-06-28T03:50:21.911Z,42.90
2018-06-28T03:51:21.903Z,44.20
2018-06-28T03:52:21.893Z,44.00
2018-06-28T03:53:21.885Z,43.40
2018-06-28T03:54:21.875Z,43.40
2018-06-28T03:55:21.865Z,42.80
2018-06-28T03:56:21.856Z,42.50
2018-06-28T03:57:21.892Z,43.50
2018-06-28T03:58:21.837Z,42.10
2018-06-28T03:59:21.828Z,40.60
2018-06-28T04:00:21.819Z,41.90
2018-06-28T04:01:21.810Z,41.00
2018-06-28T04:02:21.801Z,40.20
2018-06-28T04:03:21.791Z,39.90
2018-06-28T04:04:21.782Z,40.10
2018-06-28T04:05:21.773Z,40.00
2018-06-28T04:06:21.762Z,39.40
2018-06-28T04:07:21.755Z,38.20
2018-06-28T04:08:21.744Z,38.50
2018-06-28T04:09:21.735Z,38.00
2018-06-28T04:10:21.725Z,37.90
2018-06-28T04:11:21.716Z,38.80
2018-06-28T04:12:21.707Z,38.50
2018-06-28T04:13:21.698Z,39.20
2018-06-28T04:14:21.687Z,38.50
2018-06-28T04:15:21.679Z,38.50
2018-06-28T04:16:21.669Z,39.40
2018-06-28T04:17:21.660Z,40.00
2018-06-28T04:18:21.649Z,38.40
2018-06-28T04:19:21.644Z,38.30
2018-06-28T04:20:21.632Z,38.40
2018-06-28T04:21:21.623Z,39.10
2018-06-28T04:22:21.616Z,38.40
2018-06-28T04:23:21.604Z,40.70
2018-06-28T04:24:21.594Z,39.20
2018-06-28T04:25:21.585Z,39.20
2018-06-28T04:26:21.574Z,40.90
2018-06-28T04:27:21.583Z,41.30
2018-06-28T04:28:21.557Z,39.10
2018-06-28T04:29:21.548Z,40.50
2018-06-28T04:30:21.536Z,39.60
2018-06-28T04:31:21.527Z,40.50
2018-06-28T04:32:21.520Z,41.80
2018-06-28T04:33:21.550Z,43.80
2018-06-28T04:34:21.502Z,41.70
2018-06-28T04:35:21.491Z,40.90
2018-06-28T04:36:21.481Z,40.50
2018-06-28T04:37:21.476Z,40.30
2018-06-28T04:38:21.466Z,42.40
2018-06-28T04:39:21.452Z,42.40
2018-06-28T04:40:21.443Z,42.60
2018-06-28T04:41:21.433Z,42.10
2018-06-28T04:42:21.422Z,43.10
2018-06-28T04:43:21.414Z,43.70
2018-06-28T04:44:21.403Z,47.30
2018-06-28T04:45:21.397Z,44.50
2018-06-28T04:46:21.385Z,43.00
2018-06-28T04:47:21.376Z,43.00
2018-06-28T04:48:21.366Z,42.50
2018-06-28T04:49:21.356Z,43.80
2018-06-28T04:50:21.349Z,44.30
2018-06-28T04:51:21.337Z,44.70
2018-06-28T04:52:21.327Z,43.70
2018-06-28T04:53:21.318Z,44.40
2018-06-28T04:54:21.308Z,44.20
2018-06-28T04:55:21.298Z,44.70
2018-06-28T04:56:21.290Z,44.30
2018-06-28T04:57:21.284Z,42.30
2018-06-28T04:58:21.268Z,43.40
2018-06-28T04:59:21.262Z,42.80
2018-06-28T05:00:21.252Z,44.90
2018-06-28T05:01:21.291Z,45.70
2018-06-28T05:02:21.231Z,44.90
2018-06-28T05:03:21.222Z,43.90
2018-06-28T05:04:21.212Z,44.40
2018-06-28T05:05:21.198Z,45.20
2018-06-28T05:06:21.189Z,46.10
2018-06-28T05:07:21.180Z,44.30
2018-06-28T05:08:21.169Z,46.20
2018-06-28T05:09:21.167Z,45.80
2018-06-28T05:10:21.149Z,46.00
2018-06-28T05:11:21.140Z,46.90
2018-06-28T05:12:21.222Z,45.40
2018-06-28T05:13:21.121Z,48.50
2018-06-28T05:14:21.112Z,47.20
2018-06-28T05:15:21.101Z,46.00
2018-06-28T05:16:21.093Z,47.20
2018-06-28T05:17:21.082Z,47.50
2018-06-28T05:18:21.072Z,47.90
2018-06-28T05:19:21.062Z,47.20
2018-06-28T05:20:21.053Z,46.30
2018-06-28T05:21:21.044Z,48.40
2018-06-28T05:22:21.034Z,47.70
2018-06-28T05:23:21.052Z,48.40
2018-06-28T05:24:21.014Z,48.70
2018-06-28T05:25:21.005Z,49.40
2018-06-28T05:26:20.994Z,48.80
2018-06-28T05:27:20.984Z,45.20
2018-06-28T05:28:20.977Z,48.40
2018-06-28T05:29:20.967Z,46.30
2018-06-28T05:30:20.956Z,47.00
2018-06-28T05:31:20.946Z,45.80
2018-06-28T05:32:20.938Z,47.80
2018-06-28T05:33:20.927Z,45.20
2018-06-28T05:34:20.921Z,46.20
2018-06-28T05:35:20.912Z,45.90
2018-06-28T05:36:20.902Z,49.90
2018-06-28T05:37:20.894Z,46.90
2018-06-28T05:38:20.882Z,48.30
2018-06-28T05:39:20.873Z,47.50
2018-06-28T05:40:20.865Z,46.80
2018-06-28T05:41:20.854Z,48.80
2018-06-28T05:42:20.844Z,48.20
2018-06-28T05:43:20.834Z,47.00
2018-06-28T05:44:20.824Z,49.00
2018-06-28T05:45:20.814Z,50.90
2018-06-28T05:46:20.804Z,50.00
2018-06-28T05:47:20.795Z,47.90
2018-06-28T05:48:20.785Z,47.80
2018-06-28T05:49:20.776Z,49.20
2018-06-28T05:50:20.768Z,46.70
2018-06-28T05:51:20.756Z,45.90
2018-06-28T05:52:20.745Z,46.90
2018-06-28T05:53:20.737Z,50.10
2018-06-28T05:54:20.727Z,47.70
2018-06-28T05:55:20.717Z,47.60
2018-06-28T05:56:20.707Z,46.20
2018-06-28T05:57:20.697Z,46.80
2018-06-28T05:58:20.687Z,47.40
2018-06-28T05:59:20.679Z,47.10
2018-06-28T06:00:20.671Z,47.40
2018-06-28T06:01:20.683Z,47.50
2018-06-28T06:02:20.648Z,46.70
2018-06-28T06:03:20.637Z,48.50
2018-06-28T06:04:20.628Z,48.60
2018-06-28T06:05:20.620Z,48.40
2018-06-28T06:06:20.609Z,49.80
2018-06-28T06:07:20.598Z,49.20
2018-06-28T06:08:20.590Z,49.60
2018-06-28T06:09:20.579Z,48.80
2018-06-28T06:10:20.592Z,48.80
2018-06-28T06:11:20.561Z,47.80
2018-06-28T06:12:20.551Z,48.40
2018-06-28T06:13:20.540Z,48.60
2018-06-28T06:14:20.550Z,48.40
2018-06-28T06:15:20.526Z,49.40
2018-06-28T06:16:20.512Z,49.10
2018-06-28T06:17:20.502Z,48.90
2018-06-28T06:18:20.642Z,49.40
2018-06-28T06:19:20.482Z,49.20
2018-06-28T06:20:20.499Z,49.20
2018-06-28T06:21:20.463Z,51.50
2018-06-28T06:22:20.451Z,51.10
2018-06-28T06:23:20.442Z,49.00
2018-06-28T06:24:20.435Z,48.80
2018-06-28T06:25:20.426Z,51.20
2018-06-28T06:26:20.413Z,49.20
2018-06-28T06:27:20.416Z,50.10
2018-06-28T06:28:20.489Z,48.70
2018-06-28T06:29:20.534Z,50.80
2018-06-28T06:30:20.373Z,50.10
2018-06-28T06:31:20.365Z,50.90
2018-06-28T06:32:20.355Z,50.00
2018-06-28T06:33:20.345Z,50.50
2018-06-28T06:34:20.334Z,51.10
2018-06-28T06:35:20.325Z,50.20
2018-06-28T06:36:20.366Z,51.10
2018-06-28T06:37:20.306Z,49.80
2018-06-28T06:38:20.294Z,50.40
2018-06-28T06:39:20.285Z,49.60
2018-06-28T06:40:20.275Z,49.60
2018-06-28T06:41:20.268Z,50.40
2018-06-28T06:42:20.257Z,49.80
2018-06-28T06:43:20.246Z,50.20
2018-06-28T06:44:20.236Z,50.20
2018-06-28T06:45:20.227Z,51.10
2018-06-28T06:46:20.216Z,48.40
2018-06-28T06:47:20.207Z,49.50
2018-06-28T06:48:20.200Z,49.30
2018-06-28T06:49:20.187Z,47.50
2018-06-28T06:50:20.177Z,48.90
2018-06-28T06:51:20.168Z,47.50
2018-06-28T06:52:20.158Z,46.60
2018-06-28T06:53:20.148Z,48.80
2018-06-28T06:54:20.138Z,48.50
2018-06-28T06:55:20.129Z,48.20
2018-06-28T06:56:20.111Z,50.20
2018-06-28T06:57:20.100Z,48.70
2018-06-28T06:58:20.090Z,48.70
2018-06-28T06:59:20.080Z,48.30
2018-06-28T07:00:20.075Z,49.00
2018-06-28T07:01:20.061Z,50.50
2018-06-28T07:02:20.050Z,48.70
2018-06-28T07:03:20.039Z,49.90
2018-06-28T07:04:20.061Z,48.00
2018-06-28T07:05:20.022Z,50.50
2018-06-28T07:06:20.011Z,48.70
2018-06-28T07:07:20.001Z,50.30
2018-06-28T07:08:19.992Z,49.50
2018-06-28T07:09:19.982Z,48.70
2018-06-28T07:10:20.018Z,48.80
2018-06-28T07:11:19.962Z,47.80
2018-06-28T07:12:19.952Z,47.50
2018-06-28T07:13:19.943Z,46.20
2018-06-28T07:14:19.933Z,49.10
2018-06-28T07:15:19.922Z,48.40
2018-06-28T07:16:19.912Z,49.30
2018-06-28T07:17:19.905Z,49.20
2018-06-28T07:18:19.993Z,49.30
2018-06-28T07:19:19.883Z,49.00
2018-06-28T07:20:19.876Z,50.80
2018-06-28T07:21:19.865Z,47.60
2018-06-28T07:22:19.853Z,48.70
2018-06-28T07:23:19.845Z,49.30
2018-06-28T07:24:19.835Z,51.10
2018-06-28T07:25:19.826Z,50.20
2018-06-28T07:26:19.817Z,50.70
2018-06-28T07:27:19.806Z,48.60
2018-06-28T07:28:19.838Z,49.90
2018-06-28T07:29:19.785Z,48.20
2018-06-28T07:30:19.776Z,48.60
2018-06-28T07:31:19.767Z,49.80
2018-06-28T07:32:19.756Z,49.10
2018-06-28T07:33:19.747Z,49.50
2018-06-28T07:34:19.736Z,49.60
2018-06-28T07:35:19.727Z,50.10
2018-06-28T07:36:19.717Z,48.10
2018-06-28T07:37:19.709Z,50.70
2018-06-28T07:38:19.701Z,48.60
2018-06-28T07:39:19.688Z,48.60
2018-06-28T07:40:19.679Z,50.10
2018-06-28T07:41:19.669Z,49.90
2018-06-28T07:42:19.684Z,49.30
2018-06-28T07:43:19.652Z,49.10
2018-06-28T07:44:19.639Z,48.00
2018-06-28T07:45:19.631Z,49.60
2018-06-28T07:46:19.620Z,47.50
2018-06-28T07:47:19.611Z,48.40
2018-06-28T07:48:19.601Z,51.50
2018-06-28T07:49:19.591Z,48.00
2018-06-28T07:50:19.582Z,49.30
2018-06-28T07:51:19.575Z,48.90
2018-06-28T07:52:19.563Z,49.80
2018-06-28T07:53:19.555Z,48.80
2018-06-28T07:54:19.549Z,49.90
2018-06-28T07:55:19.561Z,51.40
2018-06-28T07:56:19.524Z,50.00
2018-06-28T07:57:19.514Z,49.60
2018-06-28T07:58:19.504Z,49.90
2018-06-28T07:59:19.495Z,50.20
2018-06-28T08:00:19.486Z,48.70
2018-06-28T08:01:19.477Z,49.50
2018-06-28T08:02:19.467Z,49.60
2018-06-28T08:03:19.455Z,47.50
2018-06-28T08:04:19.448Z,49.10
2018-06-28T08:05:19.440Z,51.40
2018-06-28T08:06:19.430Z,51.40
2018-06-28T08:07:19.419Z,49.90
2018-06-28T08:08:19.408Z,53.80
2018-06-28T08:09:19.400Z,49.70
2018-06-28T08:10:19.389Z,52.50
2018-06-28T08:11:19.378Z,54.00
2018-06-28T08:12:19.369Z,52.20
2018-06-28T08:13:19.359Z,50.80
2018-06-28T08:14:19.349Z,52.40
2018-06-28T08:15:19.341Z,53.40
2018-06-28T08:16:19.332Z,53.80
2018-06-28T08:17:19.321Z,54.90
2018-06-28T08:18:19.310Z,52.20
2018-06-28T08:19:19.300Z,52.10
2018-06-28T08:20:19.292Z,51.90
2018-06-28T08:21:19.281Z,51.90
2018-06-28T08:22:19.270Z,52.90
2018-06-28T08:23:19.262Z,52.50
2018-06-28T08:24:19.253Z,54.00
2018-06-28T08:25:19.242Z,53.50
2018-06-28T08:26:19.233Z,52.90
2018-06-28T08:27:19.223Z,53.50
2018-06-28T08:28:19.250Z,53.40
2018-06-28T08:29:19.204Z,53.70
2018-06-28T08:30:19.343Z,53.50
2018-06-28T08:31:19.183Z,54.70
2018-06-28T08:32:19.190Z,54.80
2018-06-28T08:33:19.171Z,54.20
2018-06-28T08:34:19.152Z,53.00
2018-06-28T08:35:19.144Z,53.70
2018-06-28T08:36:19.134Z,54.50
2018-06-28T08:37:19.125Z,53.60
2018-06-28T08:38:19.114Z,54.00
2018-06-28T08:39:19.105Z,56.60
2018-06-28T08:40:19.094Z,56.30
2018-06-28T08:41:19.085Z,57.00
2018-06-28T08:42:19.075Z,57.40
2018-06-28T08:43:19.095Z,56.90
2018-06-28T08:44:19.055Z,57.20
2018-06-28T08:45:19.047Z,58.40
2018-06-28T08:46:19.039Z,59.70
2018-06-28T08:47:19.027Z,57.80
2018-06-28T08:48:19.016Z,59.70
2018-06-28T08:49:19.006Z,64.80
2018-06-28T08:50:18.996Z,59.70
2018-06-28T08:51:18.987Z,61.20
2018-06-28T08:52:18.978Z,62.80
2018-06-28T08:53:18.968Z,60.50
2018-06-28T08:54:19.108Z,61.80
2018-06-28T08:55:18.947Z,62.10
2018-06-28T08:56:18.942Z,62.50
2018-06-28T08:57:18.928Z,63.60
2018-06-28T08:58:18.980Z,63.40
2018-06-28T08:59:18.911Z,62.70
2018-06-28T09:00:18.897Z,65.10
2018-06-28T09:01:18.888Z,66.30
2018-06-28T09:02:18.879Z,66.60
2018-06-28T09:03:18.869Z,65.90
2018-06-28T09:04:18.860Z,66.40
2018-06-28T09:05:18.850Z,66.90
2018-06-28T09:06:18.842Z,66.60
2018-06-28T09:07:18.829Z,65.10
2018-06-28T09:08:18.819Z,68.50
2018-06-28T09:09:18.809Z,67.60
2018-06-28T09:10:18.799Z,65.10
2018-06-28T09:11:18.789Z,68.80
2018-06-28T09:12:18.779Z,68.80
2018-06-28T09:13:18.770Z,67.60
2018-06-28T09:14:18.758Z,69.40
2018-06-28T09:15:18.781Z,66.70
2018-06-28T09:16:18.739Z,65.10
2018-06-28T09:17:18.729Z,66.80
2018-06-28T09:18:18.718Z,63.90
2018-06-28T09:19:18.709Z,62.70
2018-06-28T09:20:18.700Z,64.40
2018-06-28T09:21:18.689Z,63.30
2018-06-28T09:22:18.676Z,67.60
2018-06-28T09:23:18.668Z,65.30
2018-06-28T09:24:18.658Z,65.10
2018-06-28T09:25:18.649Z,61.50
2018-06-28T09:26:18.638Z,63.00
2018-06-28T09:27:18.627Z,65.30
2018-06-28T09:28:18.619Z,62.00
2018-06-28T09:29:18.610Z,61.40
2018-06-28T09:30:18.599Z,62.20
2018-06-28T09:31:18.589Z,64.20
2018-06-28T09:32:18.578Z,64.20
2018-06-28T09:33:18.569Z,62.00
2018-06-28T09:34:18.558Z,61.10
2018-06-28T09:35:18.548Z,61.70
2018-06-28T09:36:18.539Z,60.40
2018-06-28T09:37:18.528Z,59.40
2018-06-28T09:38:18.519Z,59.20
2018-06-28T09:39:18.507Z,59.30
2018-06-28T09:40:18.499Z,59.30
2018-06-28T09:41:18.489Z,61.40
2018-06-28T09:42:18.478Z,58.50
2018-06-28T09:43:18.500Z,62.50
2018-06-28T09:44:18.459Z,59.30
2018-06-28T09:45:18.450Z,60.60
2018-06-28T09:46:18.445Z,56.30
2018-06-28T09:47:18.429Z,56.60
2018-06-28T09:48:18.419Z,57.30
2018-06-28T09:49:18.410Z,54.80
2018-06-28T09:50:18.398Z,52.80
2018-06-28T09:51:18.390Z,56.30
2018-06-28T09:52:18.381Z,53.50
2018-06-28T09:53:18.369Z,55.50
2018-06-28T09:54:18.359Z,54.70
2018-06-28T09:55:18.350Z,57.30
2018-06-28T09:56:18.340Z,52.10
2018-06-28T09:57:18.333Z,53.90
2018-06-28T09:58:18.319Z,52.80
2018-06-28T09:59:18.310Z,53.80
2018-06-28T10:00:18.361Z,51.60
2018-06-28T10:01:18.291Z,54.20
2018-06-28T10:02:18.280Z,54.40
2018-06-28T10:03:18.271Z,53.40
2018-06-28T10:04:18.262Z,51.40
2018-06-28T10:05:18.252Z,52.70
2018-06-28T10:06:18.242Z,50.50
2018-06-28T10:07:18.232Z,49.40
2018-06-28T10:08:18.224Z,51.40
2018-06-28T10:09:18.215Z,53.70
2018-06-28T10:10:18.202Z,51.20
2018-06-28T10:11:18.193Z,49.40
2018-06-28T10:12:18.184Z,51.70
2018-06-28T10:13:18.231Z,49.00
2018-06-28T10:14:18.164Z,48.40
2018-06-28T10:15:18.157Z,48.20
2018-06-28T10:16:18.144Z,47.00
2018-06-28T10:17:18.135Z,47.90
2018-06-28T10:18:18.273Z,47.40
2018-06-28T10:19:18.114Z,46.30
2018-06-28T10:20:18.105Z,45.60
2018-06-28T10:21:18.096Z,47.90
2018-06-28T10:22:18.084Z,45.50
2018-06-28T10:23:18.075Z,44.70
2018-06-28T10:24:18.067Z,45.10
2018-06-28T10:25:18.059Z,46.20
2018-06-28T10:26:18.047Z,46.70
2018-06-28T10:27:18.036Z,46.20
2018-06-28T10:28:18.028Z,45.40
2018-06-28T10:29:18.018Z,46.10
2018-06-28T10:30:18.006Z,44.00
2018-06-28T10:31:17.997Z,43.00
2018-06-28T10:32:17.988Z,43.30
2018-06-28T10:33:17.978Z,44.10
2018-06-28T10:34:17.966Z,44.50
2018-06-28T10:35:17.959Z,43.60
2018-06-28T10:36:17.950Z,43.30
2018-06-28T10:37:17.940Z,44.70
2018-06-28T10:38:17.928Z,44.20
2018-06-28T10:39:17.919Z,43.10
2018-06-28T10:40:17.910Z,42.80
2018-06-28T10:41:18.099Z,41.50
2018-06-28T10:42:17.890Z,41.80
2018-06-28T10:43:17.879Z,42.60
2018-06-28T10:44:17.872Z,42.60
2018-06-28T10:45:17.860Z,42.00
2018-06-28T10:46:17.851Z,42.30
2018-06-28T10:47:18.040Z,44.00
2018-06-28T10:48:17.830Z,44.60
2018-06-28T10:49:17.820Z,42.70
2018-06-28T10:50:17.809Z,45.80
2018-06-28T10:51:17.802Z,44.70
2018-06-28T10:52:17.793Z,43.00
2018-06-28T10:53:17.780Z,42.20
2018-06-28T10:54:17.770Z,43.30
2018-06-28T10:55:17.761Z,43.30
2018-06-28T10:56:17.757Z,42.20
2018-06-28T10:57:17.742Z,45.20
2018-06-28T10:58:17.740Z,43.10
2018-06-28T10:59:17.720Z,41.30
2018-06-28T11:00:17.712Z,42.60
2018-06-28T11:01:17.704Z,44.70
2018-06-28T11:02:17.693Z,43.60
2018-06-28T11:03:17.682Z,43.00
2018-06-28T11:04:17.673Z,41.60
2018-06-28T11:05:17.664Z,45.60
2018-06-28T11:06:17.652Z,43.30
2018-06-28T11:07:17.649Z,43.30
2018-06-28T11:08:17.664Z,43.60
2018-06-28T11:09:17.625Z,45.10
2018-06-28T11:10:17.634Z,42.40
2018-06-28T11:11:17.605Z,43.80
2018-06-28T11:12:17.595Z,44.90
2018-06-28T11:13:17.584Z,43.40
2018-06-28T11:14:17.576Z,44.30
2018-06-28T11:15:17.566Z,43.80
2018-06-28T11:16:17.558Z,46.40
2018-06-28T11:17:17.548Z,44.20
2018-06-28T11:18:17.537Z,44.50
2018-06-28T11:19:17.526Z,45.10
2018-06-28T11:20:17.517Z,42.90
2018-06-28T11:21:17.508Z,44.00
2018-06-28T11:22:17.498Z,45.60
2018-06-28T11:23:17.493Z,44.10
2018-06-28T11:24:17.478Z,46.60
2018-06-28T11:25:17.473Z,45.70
2018-06-28T11:26:17.458Z,46.10
2018-06-28T11:27:17.450Z,46.40
2018-06-28T11:28:17.440Z,45.80
2018-06-28T11:29:17.430Z,44.70
2018-06-28T11:30:17.420Z,46.50
2018-06-28T11:31:17.411Z,45.40
2018-06-28T11:32:17.402Z,46.00
2018-06-28T11:33:17.392Z,46.90
2018-06-28T11:34:17.383Z,44.90
2018-06-28T11:35:17.373Z,43.80
2018-06-28T11:36:17.403Z,44.80
2018-06-28T11:37:17.355Z,43.60
2018-06-28T11:38:17.345Z,45.70
2018-06-28T11:39:17.336Z,43.50
2018-06-28T11:40:17.327Z,42.80
2018-06-28T11:41:17.318Z,41.80
2018-06-28T11:42:17.308Z,43.30
2018-06-28T11:43:17.299Z,40.50
2018-06-28T11:44:17.290Z,42.40
2018-06-28T11:45:17.281Z,42.30
2018-06-28T11:46:17.472Z,43.20
2018-06-28T11:47:17.263Z,44.40
2018-06-28T11:48:17.254Z,43.50
2018-06-28T11:49:17.247Z,44.10
2018-06-28T11:50:17.236Z,47.10
2018-06-28T11:51:17.230Z,45.00
2018-06-28T11:52:17.382Z,44.60
2018-06-28T11:53:17.212Z,45.10
2018-06-28T11:54:17.201Z,47.10
2018-06-28T11:55:17.196Z,46.80
2018-06-28T11:56:17.186Z,46.10
2018-06-28T11:57:17.177Z,43.00
2018-06-28T11:58:17.167Z,42.00
2018-06-28T11:59:17.160Z,46.30
2018-06-28T12:00:17.153Z,45.10
2018-06-28T12:01:17.145Z,44.40
2018-06-28T12:02:17.136Z,42.80
2018-06-28T12:03:17.128Z,45.90
2018-06-28T12:04:17.122Z,43.40
2018-06-28T12:05:17.177Z,45.20
2018-06-28T12:06:17.103Z,44.70
2018-06-28T12:07:17.097Z,45.90
2018-06-28T12:08:17.088Z,45.10
2018-06-28T12:09:17.081Z,47.10
2018-06-28T12:10:17.116Z,48.20
2018-06-28T12:11:17.073Z,48.00
2018-06-28T12:12:17.057Z,47.70
2018-06-28T12:13:17.049Z,50.60
2018-06-28T12:14:17.041Z,49.10
2018-06-28T12:15:17.053Z,49.20
2018-06-28T12:16:17.026Z,49.30
2018-06-28T12:17:17.017Z,48.50
2018-06-28T12:18:17.009Z,50.20
2018-06-28T12:19:17.002Z,47.50
2018-06-28T12:20:16.995Z,49.10
2018-06-28T12:21:16.986Z,49.70
2018-06-28T12:22:17.019Z,47.60
2018-06-28T12:23:16.969Z,49.20
2018-06-28T12:24:16.964Z,52.50
2018-06-28T12:25:16.955Z,50.40
2018-06-28T12:26:16.943Z,50.70
2018-06-28T12:27:16.937Z,50.80
2018-06-28T12:28:16.930Z,49.40
2018-06-28T12:29:16.924Z,53.00
2018-06-28T12:30:16.913Z,48.90
2018-06-28T12:31:16.906Z,50.00
2018-06-28T12:32:16.898Z,51.00
2018-06-28T12:33:16.891Z,48.60
2018-06-28T12:34:16.883Z,49.60
2018-06-28T12:35:16.881Z,50.80
2018-06-28T12:36:16.868Z,53.90
2018-06-28T12:37:16.860Z,53.00
2018-06-28T12:38:16.852Z,47.10
2018-06-28T12:39:16.883Z,53.30
2018-06-28T12:40:16.841Z,51.60
2018-06-28T12:41:16.829Z,52.60
2018-06-28T12:42:16.823Z,52.00
2018-06-28T12:43:16.814Z,53.10
2018-06-28T12:44:16.806Z,51.30
2018-06-28T12:45:16.799Z,52.70
2018-06-28T12:46:16.799Z,57.80
2018-06-28T12:47:16.784Z,59.20
2018-06-28T12:48:16.775Z,57.00
2018-06-28T12:49:16.768Z,58.00
2018-06-28T12:50:16.760Z,55.20
2018-06-28T12:51:16.753Z,55.80
2018-06-28T12:52:16.746Z,57.20